sensor_id;sensor_type;location;lat;lon;timestamp;P1;durP1;ratioP1;P2;durP2;ratioP2
79687;SDS011;69155;49.464;2.108;2023-07-31T00:00:42;6.22;;;2.92;;
79687;SDS011;69155;49.464;2.108;2023-07-31T00:03:07;5.03;;;2.63;;
79687;SDS011;69155;49.464;2.108;2023-07-31T00:05:32;7.40;;;3.40;;
79687;SDS011;69155;49.464;2.108;2023-07-31T00:07:58;8.10;;;2.83;;
79687;SDS011;69155;49.464;2.108;2023-07-31T00:10:23;9.73;;;3.37;;
79687;SDS011;69155;49.464;2.108;2023-07-31T00:12:50;8.63;;;3.27;;
79687;SDS011;69155;49.464;2.108;2023-07-31T00:15:18;5.60;;;3.17;;
79687;SDS011;69155;49.464;2.108;2023-07-31T00:17:44;7.13;;;2.78;;
79687;SDS011;69155;49.464;2.108;2023-07-31T00:20:11;6.65;;;3.00;;
79687;SDS011;69155;49.464;2.108;2023-07-31T00:22:39;5.67;;;2.13;;
79687;SDS011;69155;49.464;2.108;2023-07-31T00:25:10;7.05;;;2.85;;
79687;SDS011;69155;49.464;2.108;2023-07-31T00:27:37;6.43;;;3.22;;
79687;SDS011;69155;49.464;2.108;2023-07-31T00:30:11;6.72;;;2.78;;
79687;SDS011;69155;49.464;2.108;2023-07-31T00:32:41;7.80;;;3.38;;
79687;SDS011;69155;49.464;2.108;2023-07-31T00:35:07;10.50;;;2.88;;
79687;SDS011;69155;49.464;2.108;2023-07-31T00:37:42;8.38;;;3.33;;
79687;SDS011;69155;49.464;2.108;2023-07-31T00:40:16;11.93;;;3.45;;
79687;SDS011;69155;49.464;2.108;2023-07-31T00:43:00;6.03;;;3.15;;
79687;SDS011;69155;49.464;2.108;2023-07-31T00:45:26;5.93;;;2.67;;
79687;SDS011;69155;49.464;2.108;2023-07-31T00:47:53;8.18;;;2.88;;
79687;SDS011;69155;49.464;2.108;2023-07-31T00:50:19;4.60;;;2.90;;
79687;SDS011;69155;49.464;2.108;2023-07-31T00:52:47;5.82;;;2.95;;
79687;SDS011;69155;49.464;2.108;2023-07-31T00:55:12;4.25;;;2.67;;
79687;SDS011;69155;49.464;2.108;2023-07-31T00:57:40;7.83;;;3.50;;
79687;SDS011;69155;49.464;2.108;2023-07-31T01:00:06;11.88;;;4.10;;
79687;SDS011;69155;49.464;2.108;2023-07-31T01:02:40;5.88;;;2.65;;
79687;SDS011;69155;49.464;2.108;2023-07-31T01:05:13;8.50;;;2.90;;
79687;SDS011;69155;49.464;2.108;2023-07-31T01:10:16;8.95;;;3.03;;
79687;SDS011;69155;49.464;2.108;2023-07-31T01:13:04;7.75;;;3.35;;
79687;SDS011;69155;49.464;2.108;2023-07-31T01:15:38;7.00;;;2.97;;
79687;SDS011;69155;49.464;2.108;2023-07-31T01:18:08;15.82;;;4.03;;
79687;SDS011;69155;49.464;2.108;2023-07-31T01:20:38;6.13;;;2.97;;
79687;SDS011;69155;49.464;2.108;2023-07-31T01:23:29;10.02;;;2.92;;
79687;SDS011;69155;49.464;2.108;2023-07-31T01:31:24;5.95;;;3.20;;
79687;SDS011;69155;49.464;2.108;2023-07-31T01:33:53;6.45;;;2.90;;
79687;SDS011;69155;49.464;2.108;2023-07-31T01:36:19;8.57;;;3.08;;
79687;SDS011;69155;49.464;2.108;2023-07-31T01:38:45;10.10;;;2.90;;
79687;SDS011;69155;49.464;2.108;2023-07-31T01:43:43;8.70;;;3.05;;
79687;SDS011;69155;49.464;2.108;2023-07-31T01:46:08;7.47;;;2.87;;
79687;SDS011;69155;49.464;2.108;2023-07-31T01:48:36;8.25;;;3.53;;
79687;SDS011;69155;49.464;2.108;2023-07-31T01:51:07;8.48;;;2.88;;
79687;SDS011;69155;49.464;2.108;2023-07-31T01:53:32;8.93;;;3.15;;
79687;SDS011;69155;49.464;2.108;2023-07-31T01:55:57;6.57;;;2.93;;
79687;SDS011;69155;49.464;2.108;2023-07-31T01:58:33;8.63;;;3.65;;
79687;SDS011;69155;49.464;2.108;2023-07-31T02:01:00;7.38;;;3.25;;
79687;SDS011;69155;49.464;2.108;2023-07-31T02:03:28;7.93;;;3.10;;
79687;SDS011;69155;49.464;2.108;2023-07-31T02:06:01;12.73;;;3.63;;
79687;SDS011;69155;49.464;2.108;2023-07-31T02:08:27;12.23;;;3.58;;
79687;SDS011;69155;49.464;2.108;2023-07-31T02:10:55;9.88;;;2.70;;
79687;SDS011;69155;49.464;2.108;2023-07-31T02:13:21;6.38;;;2.83;;
79687;SDS011;69155;49.464;2.108;2023-07-31T02:15:46;9.27;;;2.77;;
79687;SDS011;69155;49.464;2.108;2023-07-31T02:20:48;4.40;;;2.60;;
79687;SDS011;69155;49.464;2.108;2023-07-31T02:23:24;6.93;;;3.10;;
79687;SDS011;69155;49.464;2.108;2023-07-31T02:25:51;5.95;;;2.50;;
79687;SDS011;69155;49.464;2.108;2023-07-31T02:28:16;9.50;;;2.85;;
79687;SDS011;69155;49.464;2.108;2023-07-31T02:30:50;6.57;;;2.95;;
79687;SDS011;69155;49.464;2.108;2023-07-31T02:33:19;7.68;;;3.15;;
79687;SDS011;69155;49.464;2.108;2023-07-31T02:35:52;6.15;;;3.05;;
79687;SDS011;69155;49.464;2.108;2023-07-31T02:38:17;7.60;;;2.97;;
79687;SDS011;69155;49.464;2.108;2023-07-31T02:41:00;5.60;;;3.03;;
79687;SDS011;69155;49.464;2.108;2023-07-31T02:43:30;5.32;;;3.17;;
79687;SDS011;69155;49.464;2.108;2023-07-31T02:45:58;6.78;;;2.60;;
79687;SDS011;69155;49.464;2.108;2023-07-31T02:48:26;5.60;;;2.58;;
79687;SDS011;69155;49.464;2.108;2023-07-31T02:51:01;7.43;;;2.67;;
79687;SDS011;69155;49.464;2.108;2023-07-31T02:53:29;8.07;;;2.70;;
79687;SDS011;69155;49.464;2.108;2023-07-31T02:55:54;6.78;;;2.40;;
79687;SDS011;69155;49.464;2.108;2023-07-31T02:58:22;6.68;;;2.13;;
79687;SDS011;69155;49.464;2.108;2023-07-31T03:01:04;5.93;;;2.43;;
79687;SDS011;69155;49.464;2.108;2023-07-31T03:03:30;9.65;;;3.10;;
79687;SDS011;69155;49.464;2.108;2023-07-31T03:06:03;5.38;;;2.67;;
79687;SDS011;69155;49.464;2.108;2023-07-31T03:08:28;5.00;;;2.05;;
79687;SDS011;69155;49.464;2.108;2023-07-31T03:10:53;5.90;;;2.20;;
79687;SDS011;69155;49.464;2.108;2023-07-31T03:13:21;6.00;;;2.70;;
79687;SDS011;69155;49.464;2.108;2023-07-31T03:15:49;5.72;;;2.70;;
79687;SDS011;69155;49.464;2.108;2023-07-31T03:18:18;11.23;;;2.75;;
79687;SDS011;69155;49.464;2.108;2023-07-31T03:20:49;7.38;;;3.00;;
79687;SDS011;69155;49.464;2.108;2023-07-31T03:23:20;4.47;;;2.72;;
79687;SDS011;69155;49.464;2.108;2023-07-31T03:25:57;12.13;;;3.05;;
79687;SDS011;69155;49.464;2.108;2023-07-31T03:28:23;6.88;;;2.58;;
79687;SDS011;69155;49.464;2.108;2023-07-31T03:30:48;8.20;;;2.80;;
79687;SDS011;69155;49.464;2.108;2023-07-31T03:33:16;6.57;;;2.53;;
79687;SDS011;69155;49.464;2.108;2023-07-31T03:35:44;8.27;;;3.10;;
79687;SDS011;69155;49.464;2.108;2023-07-31T03:38:13;6.28;;;2.90;;
79687;SDS011;69155;49.464;2.108;2023-07-31T03:40:38;4.43;;;2.45;;
79687;SDS011;69155;49.464;2.108;2023-07-31T03:43:03;5.00;;;2.87;;
79687;SDS011;69155;49.464;2.108;2023-07-31T03:45:28;5.90;;;2.60;;
79687;SDS011;69155;49.464;2.108;2023-07-31T03:47:56;6.50;;;2.63;;
79687;SDS011;69155;49.464;2.108;2023-07-31T03:50:24;7.68;;;3.20;;
79687;SDS011;69155;49.464;2.108;2023-07-31T03:52:50;7.57;;;2.85;;
79687;SDS011;69155;49.464;2.108;2023-07-31T03:55:15;8.87;;;2.83;;
79687;SDS011;69155;49.464;2.108;2023-07-31T03:57:40;5.40;;;2.60;;
79687;SDS011;69155;49.464;2.108;2023-07-31T04:00:06;8.43;;;3.27;;
79687;SDS011;69155;49.464;2.108;2023-07-31T04:02:51;7.43;;;2.80;;
79687;SDS011;69155;49.464;2.108;2023-07-31T04:05:19;8.10;;;2.93;;
79687;SDS011;69155;49.464;2.108;2023-07-31T04:07:49;7.57;;;2.85;;
79687;SDS011;69155;49.464;2.108;2023-07-31T04:10:14;6.47;;;2.88;;
79687;SDS011;69155;49.464;2.108;2023-07-31T04:12:40;4.57;;;2.85;;
79687;SDS011;69155;49.464;2.108;2023-07-31T04:15:14;7.10;;;2.63;;
79687;SDS011;69155;49.464;2.108;2023-07-31T04:17:41;7.88;;;3.45;;
79687;SDS011;69155;49.464;2.108;2023-07-31T04:20:11;6.32;;;3.20;;
79687;SDS011;69155;49.464;2.108;2023-07-31T04:25:02;8.50;;;2.47;;
79687;SDS011;69155;49.464;2.108;2023-07-31T04:27:27;6.40;;;2.75;;
79687;SDS011;69155;49.464;2.108;2023-07-31T04:29:55;7.05;;;3.53;;
79687;SDS011;69155;49.464;2.108;2023-07-31T04:32:29;8.23;;;3.38;;
79687;SDS011;69155;49.464;2.108;2023-07-31T04:34:54;5.43;;;2.85;;
79687;SDS011;69155;49.464;2.108;2023-07-31T04:37:20;9.68;;;4.32;;
79687;SDS011;69155;49.464;2.108;2023-07-31T04:39:45;6.23;;;3.37;;
79687;SDS011;69155;49.464;2.108;2023-07-31T04:42:18;4.82;;;2.30;;
79687;SDS011;69155;49.464;2.108;2023-07-31T04:44:53;7.15;;;3.20;;
79687;SDS011;69155;49.464;2.108;2023-07-31T04:47:19;10.05;;;2.95;;
79687;SDS011;69155;49.464;2.108;2023-07-31T04:49:49;6.82;;;3.13;;
79687;SDS011;69155;49.464;2.108;2023-07-31T04:52:17;10.10;;;3.10;;
79687;SDS011;69155;49.464;2.108;2023-07-31T04:54:48;11.63;;;3.20;;
79687;SDS011;69155;49.464;2.108;2023-07-31T04:57:16;12.60;;;3.45;;
79687;SDS011;69155;49.464;2.108;2023-07-31T04:59:41;11.00;;;3.30;;
79687;SDS011;69155;49.464;2.108;2023-07-31T05:02:12;8.90;;;3.25;;
79687;SDS011;69155;49.464;2.108;2023-07-31T05:04:55;8.50;;;3.08;;
79687;SDS011;69155;49.464;2.108;2023-07-31T05:07:30;7.22;;;2.90;;
79687;SDS011;69155;49.464;2.108;2023-07-31T05:13:01;7.82;;;3.10;;
79687;SDS011;69155;49.464;2.108;2023-07-31T05:18:17;7.65;;;3.20;;
79687;SDS011;69155;49.464;2.108;2023-07-31T05:20:48;8.77;;;3.00;;
79687;SDS011;69155;49.464;2.108;2023-07-31T05:26:20;8.65;;;3.20;;
79687;SDS011;69155;49.464;2.108;2023-07-31T05:28:45;9.50;;;4.57;;
79687;SDS011;69155;49.464;2.108;2023-07-31T05:31:16;5.93;;;2.90;;
79687;SDS011;69155;49.464;2.108;2023-07-31T05:33:43;9.38;;;3.50;;
79687;SDS011;69155;49.464;2.108;2023-07-31T05:36:11;10.93;;;3.70;;
79687;SDS011;69155;49.464;2.108;2023-07-31T05:38:39;9.02;;;3.50;;
79687;SDS011;69155;49.464;2.108;2023-07-31T05:41:05;10.45;;;3.50;;
79687;SDS011;69155;49.464;2.108;2023-07-31T05:43:30;9.57;;;4.47;;
79687;SDS011;69155;49.464;2.108;2023-07-31T05:46:04;13.30;;;4.27;;
79687;SDS011;69155;49.464;2.108;2023-07-31T05:48:31;12.75;;;3.75;;
79687;SDS011;69155;49.464;2.108;2023-07-31T05:50:57;9.37;;;3.67;;
79687;SDS011;69155;49.464;2.108;2023-07-31T05:53:22;8.40;;;3.37;;
79687;SDS011;69155;49.464;2.108;2023-07-31T05:55:50;8.07;;;3.70;;
79687;SDS011;69155;49.464;2.108;2023-07-31T05:58:15;9.30;;;3.65;;
79687;SDS011;69155;49.464;2.108;2023-07-31T06:00:43;13.20;;;3.72;;
79687;SDS011;69155;49.464;2.108;2023-07-31T06:03:11;11.03;;;3.40;;
79687;SDS011;69155;49.464;2.108;2023-07-31T06:05:45;11.80;;;4.30;;
79687;SDS011;69155;49.464;2.108;2023-07-31T06:08:19;12.32;;;4.28;;
79687;SDS011;69155;49.464;2.108;2023-07-31T06:10:50;8.38;;;3.63;;
79687;SDS011;69155;49.464;2.108;2023-07-31T06:13:22;11.95;;;3.95;;
79687;SDS011;69155;49.464;2.108;2023-07-31T06:15:54;12.07;;;3.60;;
79687;SDS011;69155;49.464;2.108;2023-07-31T06:18:32;10.27;;;3.83;;
79687;SDS011;69155;49.464;2.108;2023-07-31T06:21:42;13.90;;;4.25;;
79687;SDS011;69155;49.464;2.108;2023-07-31T06:23:52;9.82;;;3.92;;
79687;SDS011;69155;49.464;2.108;2023-07-31T06:27:02;10.13;;;3.55;;
79687;SDS011;69155;49.464;2.108;2023-07-31T06:29:23;8.13;;;3.97;;
79687;SDS011;69155;49.464;2.108;2023-07-31T06:31:51;13.60;;;3.53;;
79687;SDS011;69155;49.464;2.108;2023-07-31T06:34:22;13.57;;;4.03;;
79687;SDS011;69155;49.464;2.108;2023-07-31T06:36:50;13.88;;;4.43;;
79687;SDS011;69155;49.464;2.108;2023-07-31T06:39:21;7.88;;;3.58;;
79687;SDS011;69155;49.464;2.108;2023-07-31T06:41:52;13.57;;;4.75;;
79687;SDS011;69155;49.464;2.108;2023-07-31T06:44:20;9.65;;;3.83;;
79687;SDS011;69155;49.464;2.108;2023-07-31T06:46:46;11.95;;;4.18;;
79687;SDS011;69155;49.464;2.108;2023-07-31T06:49:11;11.40;;;4.73;;
79687;SDS011;69155;49.464;2.108;2023-07-31T06:51:36;9.47;;;4.90;;
79687;SDS011;69155;49.464;2.108;2023-07-31T06:54:11;9.32;;;4.13;;
79687;SDS011;69155;49.464;2.108;2023-07-31T06:59:51;12.32;;;5.07;;
79687;SDS011;69155;49.464;2.108;2023-07-31T07:02:20;8.43;;;3.80;;
79687;SDS011;69155;49.464;2.108;2023-07-31T07:04:51;10.27;;;4.80;;
79687;SDS011;69155;49.464;2.108;2023-07-31T07:07:22;15.60;;;4.75;;
79687;SDS011;69155;49.464;2.108;2023-07-31T07:09:50;10.57;;;4.15;;
79687;SDS011;69155;49.464;2.108;2023-07-31T07:12:21;8.15;;;4.25;;
79687;SDS011;69155;49.464;2.108;2023-07-31T07:17:52;12.65;;;4.63;;
79687;SDS011;69155;49.464;2.108;2023-07-31T07:20:20;14.90;;;4.87;;
79687;SDS011;69155;49.464;2.108;2023-07-31T07:22:52;16.02;;;4.85;;
79687;SDS011;69155;49.464;2.108;2023-07-31T07:25:23;7.30;;;3.60;;
79687;SDS011;69155;49.464;2.108;2023-07-31T07:27:51;7.90;;;3.70;;
79687;SDS011;69155;49.464;2.108;2023-07-31T07:30:24;5.75;;;3.53;;
79687;SDS011;69155;49.464;2.108;2023-07-31T07:32:50;13.18;;;5.43;;
79687;SDS011;69155;49.464;2.108;2023-07-31T07:35:21;8.10;;;3.77;;
79687;SDS011;69155;49.464;2.108;2023-07-31T07:37:50;13.18;;;4.20;;
79687;SDS011;69155;49.464;2.108;2023-07-31T07:40:22;12.75;;;4.80;;
79687;SDS011;69155;49.464;2.108;2023-07-31T07:42:50;9.57;;;4.18;;
79687;SDS011;69155;49.464;2.108;2023-07-31T07:48:21;12.05;;;4.38;;
79687;SDS011;69155;49.464;2.108;2023-07-31T07:50:49;10.18;;;4.65;;
79687;SDS011;69155;49.464;2.108;2023-07-31T07:53:20;12.10;;;4.32;;
79687;SDS011;69155;49.464;2.108;2023-07-31T07:58:51;11.45;;;3.63;;
79687;SDS011;69155;49.464;2.108;2023-07-31T08:01:24;12.98;;;4.68;;
79687;SDS011;69155;49.464;2.108;2023-07-31T08:04:12;17.35;;;4.95;;
79687;SDS011;69155;49.464;2.108;2023-07-31T08:06:43;12.20;;;4.85;;
79687;SDS011;69155;49.464;2.108;2023-07-31T08:09:11;14.05;;;4.50;;
79687;SDS011;69155;49.464;2.108;2023-07-31T08:11:42;14.05;;;4.47;;
79687;SDS011;69155;49.464;2.108;2023-07-31T08:14:13;11.52;;;4.40;;
79687;SDS011;69155;49.464;2.108;2023-07-31T08:16:39;11.15;;;4.45;;
79687;SDS011;69155;49.464;2.108;2023-07-31T08:19:10;12.80;;;4.23;;
79687;SDS011;69155;49.464;2.108;2023-07-31T08:21:41;14.20;;;4.78;;
79687;SDS011;69155;49.464;2.108;2023-07-31T08:24:10;13.85;;;4.65;;
79687;SDS011;69155;49.464;2.108;2023-07-31T08:26:41;10.30;;;4.35;;
79687;SDS011;69155;49.464;2.108;2023-07-31T08:34:32;6.88;;;3.80;;
79687;SDS011;69155;49.464;2.108;2023-07-31T08:37:03;10.95;;;3.78;;
79687;SDS011;69155;49.464;2.108;2023-07-31T08:39:31;6.18;;;3.28;;
79687;SDS011;69155;49.464;2.108;2023-07-31T08:42:03;6.78;;;3.80;;
79687;SDS011;69155;49.464;2.108;2023-07-31T08:44:31;10.30;;;4.43;;
79687;SDS011;69155;49.464;2.108;2023-07-31T08:47:12;13.30;;;4.13;;
79687;SDS011;69155;49.464;2.108;2023-07-31T08:49:50;18.27;;;5.65;;
79687;SDS011;69155;49.464;2.108;2023-07-31T08:52:22;11.98;;;4.30;;
79687;SDS011;69155;49.464;2.108;2023-07-31T08:54:50;7.63;;;4.05;;
79687;SDS011;69155;49.464;2.108;2023-07-31T08:57:21;10.02;;;4.28;;
79687;SDS011;69155;49.464;2.108;2023-07-31T09:00:03;13.63;;;5.40;;
79687;SDS011;69155;49.464;2.108;2023-07-31T09:03:12;12.60;;;4.32;;
79687;SDS011;69155;49.464;2.108;2023-07-31T09:07:51;15.13;;;4.22;;
79687;SDS011;69155;49.464;2.108;2023-07-31T09:10:22;11.05;;;3.67;;
79687;SDS011;69155;49.464;2.108;2023-07-31T09:12:51;15.60;;;4.90;;
79687;SDS011;69155;49.464;2.108;2023-07-31T09:15:16;10.55;;;4.35;;
79687;SDS011;69155;49.464;2.108;2023-07-31T09:17:42;11.32;;;4.43;;
79687;SDS011;69155;49.464;2.108;2023-07-31T09:22:41;10.40;;;4.30;;
79687;SDS011;69155;49.464;2.108;2023-07-31T09:25:23;13.57;;;4.97;;
79687;SDS011;69155;49.464;2.108;2023-07-31T09:30:52;10.95;;;5.07;;
79687;SDS011;69155;49.464;2.108;2023-07-31T09:33:32;11.95;;;4.47;;
79687;SDS011;69155;49.464;2.108;2023-07-31T09:35:58;16.63;;;4.80;;
79687;SDS011;69155;49.464;2.108;2023-07-31T09:38:23;11.65;;;4.53;;
79687;SDS011;69155;49.464;2.108;2023-07-31T09:40:51;7.68;;;4.05;;
79687;SDS011;69155;49.464;2.108;2023-07-31T09:43:17;11.57;;;4.17;;
79687;SDS011;69155;49.464;2.108;2023-07-31T09:45:43;9.80;;;4.20;;
79687;SDS011;69155;49.464;2.108;2023-07-31T09:48:09;13.77;;;4.63;;
79687;SDS011;69155;49.464;2.108;2023-07-31T09:50:36;9.15;;;4.07;;
79687;SDS011;69155;49.464;2.108;2023-07-31T09:53:01;7.43;;;3.80;;
79687;SDS011;69155;49.464;2.108;2023-07-31T09:55:27;11.33;;;4.30;;
79687;SDS011;69155;49.464;2.108;2023-07-31T09:57:52;9.95;;;4.07;;
79687;SDS011;69155;49.464;2.108;2023-07-31T10:00:19;9.32;;;5.03;;
79687;SDS011;69155;49.464;2.108;2023-07-31T10:02:47;7.85;;;4.18;;
79687;SDS011;69155;49.464;2.108;2023-07-31T10:05:13;9.27;;;4.50;;
79687;SDS011;69155;49.464;2.108;2023-07-31T10:07:39;9.40;;;4.13;;
79687;SDS011;69155;49.464;2.108;2023-07-31T10:10:07;7.50;;;4.00;;
79687;SDS011;69155;49.464;2.108;2023-07-31T10:12:38;9.80;;;4.50;;
79687;SDS011;69155;49.464;2.108;2023-07-31T10:15:03;12.27;;;5.18;;
79687;SDS011;69155;49.464;2.108;2023-07-31T10:17:41;10.52;;;4.72;;
79687;SDS011;69155;49.464;2.108;2023-07-31T10:20:13;13.07;;;4.38;;
79687;SDS011;69155;49.464;2.108;2023-07-31T10:22:48;8.13;;;4.13;;
79687;SDS011;69155;49.464;2.108;2023-07-31T10:25:22;14.82;;;4.80;;
79687;SDS011;69155;49.464;2.108;2023-07-31T10:27:50;12.13;;;4.60;;
79687;SDS011;69155;49.464;2.108;2023-07-31T10:30:22;9.75;;;4.40;;
79687;SDS011;69155;49.464;2.108;2023-07-31T10:32:52;7.82;;;4.07;;
79687;SDS011;69155;49.464;2.108;2023-07-31T10:35:21;7.15;;;3.90;;
79687;SDS011;69155;49.464;2.108;2023-07-31T10:37:53;10.90;;;4.38;;
79687;SDS011;69155;49.464;2.108;2023-07-31T10:43:31;14.23;;;4.50;;
79687;SDS011;69155;49.464;2.108;2023-07-31T10:46:00;9.40;;;4.45;;
79687;SDS011;69155;49.464;2.108;2023-07-31T10:48:42;11.55;;;4.60;;
79687;SDS011;69155;49.464;2.108;2023-07-31T10:51:11;14.13;;;4.45;;
79687;SDS011;69155;49.464;2.108;2023-07-31T10:53:42;13.60;;;4.45;;
79687;SDS011;69155;49.464;2.108;2023-07-31T10:56:11;8.13;;;3.88;;
79687;SDS011;69155;49.464;2.108;2023-07-31T10:58:43;9.30;;;4.38;;
79687;SDS011;69155;49.464;2.108;2023-07-31T11:01:11;5.93;;;3.58;;
79687;SDS011;69155;49.464;2.108;2023-07-31T11:06:13;9.43;;;4.35;;
79687;SDS011;69155;49.464;2.108;2023-07-31T11:09:12;10.82;;;3.95;;
79687;SDS011;69155;49.464;2.108;2023-07-31T11:11:43;10.10;;;3.45;;
79687;SDS011;69155;49.464;2.108;2023-07-31T11:14:12;8.75;;;3.80;;
79687;SDS011;69155;49.464;2.108;2023-07-31T11:19:43;8.95;;;3.75;;
79687;SDS011;69155;49.464;2.108;2023-07-31T11:22:11;9.63;;;4.60;;
79687;SDS011;69155;49.464;2.108;2023-07-31T11:24:41;7.07;;;3.33;;
79687;SDS011;69155;49.464;2.108;2023-07-31T11:27:10;5.72;;;2.90;;
79687;SDS011;69155;49.464;2.108;2023-07-31T11:29:44;7.53;;;3.58;;
79687;SDS011;69155;49.464;2.108;2023-07-31T11:37:38;9.15;;;3.13;;
79687;SDS011;69155;49.464;2.108;2023-07-31T11:43:12;6.30;;;3.10;;
79687;SDS011;69155;49.464;2.108;2023-07-31T11:45:41;7.10;;;3.45;;
79687;SDS011;69155;49.464;2.108;2023-07-31T11:48:22;7.77;;;4.27;;
79687;SDS011;69155;49.464;2.108;2023-07-31T11:50:51;6.85;;;4.05;;
79687;SDS011;69155;49.464;2.108;2023-07-31T11:56:21;7.25;;;3.97;;
79687;SDS011;69155;49.464;2.108;2023-07-31T12:01:41;11.27;;;5.32;;
79687;SDS011;69155;49.464;2.108;2023-07-31T12:04:11;12.65;;;4.60;;
79687;SDS011;69155;49.464;2.108;2023-07-31T12:06:41;17.42;;;5.40;;
79687;SDS011;69155;49.464;2.108;2023-07-31T12:11:43;15.55;;;5.15;;
79687;SDS011;69155;49.464;2.108;2023-07-31T12:14:30;7.70;;;4.93;;
79687;SDS011;69155;49.464;2.108;2023-07-31T12:17:03;10.02;;;5.32;;
79687;SDS011;69155;49.464;2.108;2023-07-31T12:19:32;8.40;;;5.07;;
79687;SDS011;69155;49.464;2.108;2023-07-31T12:22:00;12.52;;;5.65;;
79687;SDS011;69155;49.464;2.108;2023-07-31T12:24:31;10.35;;;4.20;;
79687;SDS011;69155;49.464;2.108;2023-07-31T12:27:07;11.18;;;4.60;;
79687;SDS011;69155;49.464;2.108;2023-07-31T12:29:42;6.38;;;3.95;;
79687;SDS011;69155;49.464;2.108;2023-07-31T12:32:47;8.40;;;4.30;;
79687;SDS011;69155;49.464;2.108;2023-07-31T12:38:40;6.40;;;4.05;;
79687;SDS011;69155;49.464;2.108;2023-07-31T12:41:13;9.07;;;4.50;;
79687;SDS011;69155;49.464;2.108;2023-07-31T12:43:42;8.68;;;5.05;;
79687;SDS011;69155;49.464;2.108;2023-07-31T12:46:10;13.68;;;4.30;;
79687;SDS011;69155;49.464;2.108;2023-07-31T12:48:43;8.38;;;4.63;;
79687;SDS011;69155;49.464;2.108;2023-07-31T12:51:11;8.52;;;4.93;;
79687;SDS011;69155;49.464;2.108;2023-07-31T12:53:42;10.70;;;5.25;;
79687;SDS011;69155;49.464;2.108;2023-07-31T12:59:03;15.02;;;5.22;;
79687;SDS011;69155;49.464;2.108;2023-07-31T13:01:31;13.55;;;4.72;;
79687;SDS011;69155;49.464;2.108;2023-07-31T13:04:00;7.93;;;4.82;;
79687;SDS011;69155;49.464;2.108;2023-07-31T13:06:32;11.05;;;5.22;;
79687;SDS011;69155;49.464;2.108;2023-07-31T13:09:20;10.82;;;4.40;;
79687;SDS011;69155;49.464;2.108;2023-07-31T13:11:52;7.45;;;4.60;;
79687;SDS011;69155;49.464;2.108;2023-07-31T13:17:13;10.57;;;4.38;;
79687;SDS011;69155;49.464;2.108;2023-07-31T13:19:42;14.13;;;5.20;;
79687;SDS011;69155;49.464;2.108;2023-07-31T13:22:10;9.40;;;4.57;;
79687;SDS011;69155;49.464;2.108;2023-07-31T13:24:44;10.05;;;5.03;;
79687;SDS011;69155;49.464;2.108;2023-07-31T13:27:12;9.05;;;4.32;;
79687;SDS011;69155;49.464;2.108;2023-07-31T13:29:42;12.98;;;5.50;;
79687;SDS011;69155;49.464;2.108;2023-07-31T13:37:41;9.82;;;5.07;;
79687;SDS011;69155;49.464;2.108;2023-07-31T13:40:12;12.50;;;5.67;;
79687;SDS011;69155;49.464;2.108;2023-07-31T13:48:34;8.35;;;4.95;;
79687;SDS011;69155;49.464;2.108;2023-07-31T13:51:22;10.00;;;5.15;;
79687;SDS011;69155;49.464;2.108;2023-07-31T13:53:51;8.57;;;4.80;;
79687;SDS011;69155;49.464;2.108;2023-07-31T13:56:21;10.43;;;4.97;;
79687;SDS011;69155;49.464;2.108;2023-07-31T13:58:50;9.30;;;4.78;;
79687;SDS011;69155;49.464;2.108;2023-07-31T14:01:21;10.98;;;5.80;;
79687;SDS011;69155;49.464;2.108;2023-07-31T14:06:52;7.00;;;4.07;;
79687;SDS011;69155;49.464;2.108;2023-07-31T14:09:20;8.67;;;4.13;;
79687;SDS011;69155;49.464;2.108;2023-07-31T14:14:43;6.97;;;3.53;;
79687;SDS011;69155;49.464;2.108;2023-07-31T14:17:11;6.10;;;3.92;;
79687;SDS011;69155;49.464;2.108;2023-07-31T14:19:43;6.97;;;3.40;;
79687;SDS011;69155;49.464;2.108;2023-07-31T14:22:12;8.48;;;3.42;;
79687;SDS011;69155;49.464;2.108;2023-07-31T14:24:43;5.43;;;3.08;;
79687;SDS011;69155;49.464;2.108;2023-07-31T14:27:11;5.00;;;2.85;;
79687;SDS011;69155;49.464;2.108;2023-07-31T14:29:43;4.45;;;3.00;;
79687;SDS011;69155;49.464;2.108;2023-07-31T14:32:11;8.80;;;4.35;;
79687;SDS011;69155;49.464;2.108;2023-07-31T14:34:42;5.85;;;3.17;;
79687;SDS011;69155;49.464;2.108;2023-07-31T14:37:10;6.18;;;3.50;;
79687;SDS011;69155;49.464;2.108;2023-07-31T14:39:41;10.57;;;3.50;;
79687;SDS011;69155;49.464;2.108;2023-07-31T14:42:10;7.07;;;3.88;;
79687;SDS011;69155;49.464;2.108;2023-07-31T14:44:41;5.65;;;3.55;;
79687;SDS011;69155;49.464;2.108;2023-07-31T14:47:12;7.28;;;4.22;;
79687;SDS011;69155;49.464;2.108;2023-07-31T14:49:43;6.85;;;3.42;;
79687;SDS011;69155;49.464;2.108;2023-07-31T14:52:11;7.25;;;4.18;;
79687;SDS011;69155;49.464;2.108;2023-07-31T14:54:42;5.75;;;3.53;;
79687;SDS011;69155;49.464;2.108;2023-07-31T14:57:10;7.68;;;4.22;;
79687;SDS011;69155;49.464;2.108;2023-07-31T14:59:41;9.00;;;3.70;;
79687;SDS011;69155;49.464;2.108;2023-07-31T15:02:13;5.50;;;3.65;;
79687;SDS011;69155;49.464;2.108;2023-07-31T15:04:41;6.18;;;4.25;;
79687;SDS011;69155;49.464;2.108;2023-07-31T15:07:12;7.85;;;5.13;;
79687;SDS011;69155;49.464;2.108;2023-07-31T15:09:41;8.95;;;4.57;;
79687;SDS011;69155;49.464;2.108;2023-07-31T15:15:01;7.50;;;4.07;;
79687;SDS011;69155;49.464;2.108;2023-07-31T15:17:32;7.70;;;4.13;;
79687;SDS011;69155;49.464;2.108;2023-07-31T15:20:01;11.15;;;4.35;;
79687;SDS011;69155;49.464;2.108;2023-07-31T15:22:32;8.45;;;4.22;;
79687;SDS011;69155;49.464;2.108;2023-07-31T15:25:03;6.63;;;4.32;;
79687;SDS011;69155;49.464;2.108;2023-07-31T15:27:31;7.32;;;3.97;;
79687;SDS011;69155;49.464;2.108;2023-07-31T15:33:02;11.10;;;4.55;;
79687;SDS011;69155;49.464;2.108;2023-07-31T15:35:30;8.50;;;5.17;;
79687;SDS011;69155;49.464;2.108;2023-07-31T15:38:01;11.15;;;4.93;;
79687;SDS011;69155;49.464;2.108;2023-07-31T15:40:30;12.02;;;4.88;;
79687;SDS011;69155;49.464;2.108;2023-07-31T15:43:01;12.23;;;4.25;;
79687;SDS011;69155;49.464;2.108;2023-07-31T15:45:30;10.52;;;4.28;;
79687;SDS011;69155;49.464;2.108;2023-07-31T15:48:01;8.88;;;4.50;;
79687;SDS011;69155;49.464;2.108;2023-07-31T15:50:32;8.60;;;4.75;;
79687;SDS011;69155;49.464;2.108;2023-07-31T15:53:00;9.43;;;4.40;;
79687;SDS011;69155;49.464;2.108;2023-07-31T15:55:32;8.73;;;4.53;;
79687;SDS011;69155;49.464;2.108;2023-07-31T15:58:01;7.57;;;3.90;;
79687;SDS011;69155;49.464;2.108;2023-07-31T16:00:32;9.35;;;4.28;;
79687;SDS011;69155;49.464;2.108;2023-07-31T16:03:00;6.70;;;4.05;;
79687;SDS011;69155;49.464;2.108;2023-07-31T16:05:32;8.00;;;4.75;;
79687;SDS011;69155;49.464;2.108;2023-07-31T16:08:03;4.65;;;3.55;;
79687;SDS011;69155;49.464;2.108;2023-07-31T16:10:31;10.57;;;3.67;;
79687;SDS011;69155;49.464;2.108;2023-07-31T16:13:02;4.65;;;3.55;;
79687;SDS011;69155;49.464;2.108;2023-07-31T16:20:53;5.63;;;3.80;;
79687;SDS011;69155;49.464;2.108;2023-07-31T16:23:22;5.63;;;3.67;;
79687;SDS011;69155;49.464;2.108;2023-07-31T16:25:50;7.93;;;3.80;;
79687;SDS011;69155;49.464;2.108;2023-07-31T16:28:21;6.43;;;3.65;;
79687;SDS011;69155;49.464;2.108;2023-07-31T16:30:53;6.63;;;3.85;;
79687;SDS011;69155;49.464;2.108;2023-07-31T16:33:20;3.83;;;2.63;;
79687;SDS011;69155;49.464;2.108;2023-07-31T16:35:52;4.30;;;3.63;;
79687;SDS011;69155;49.464;2.108;2023-07-31T16:38:23;3.95;;;2.90;;
79687;SDS011;69155;49.464;2.108;2023-07-31T16:40:51;5.85;;;2.90;;
79687;SDS011;69155;49.464;2.108;2023-07-31T16:49:41;5.35;;;3.42;;
79687;SDS011;69155;49.464;2.108;2023-07-31T16:51:51;4.78;;;2.67;;
79687;SDS011;69155;49.464;2.108;2023-07-31T16:54:22;5.63;;;3.00;;
79687;SDS011;69155;49.464;2.108;2023-07-31T16:56:53;4.72;;;2.90;;
79687;SDS011;69155;49.464;2.108;2023-07-31T16:59:21;4.88;;;3.00;;